Time;durP1;ratioP1;P1;durP2;ratioP2;P2;SDS_P1;SDS_P2;PMS_P1;PMS_P2;Temp;Humidity;BMP_temperature;BMP_pressure;BME280_temperature;BME280_humidity;BME280_pressure;Samples;Min_cycle;Max_cycle;Signal;HPM_P1;HPM_P2
2023/03/31 00:01:51;;;;;;;21.88;5.43;;;11.90;99.90;;;;;;6276273;22;20075;-84
2023/03/31 00:04:17;;;;;;;20.25;4.63;;;11.10;99.90;;;;;;6272548;22;20447;-84
2023/03/31 00:06:43;;;;;;;17.92;3.88;;;10.80;99.90;;;;;;6275567;22;20012;-83
2023/03/31 00:09:17;;;;;;;16.02;3.95;;;10.80;99.90;;;;;;6273774;22;20012;-83
2023/03/31 00:11:44;;;;;;;25.25;6.15;;;10.80;99.90;;;;;;6273152;22;20011;-83
2023/03/31 00:14:10;;;;;;;16.67;3.78;;;11.80;99.90;;;;;;6283422;22;20054;-84
2023/03/31 00:16:37;;;;;;;14.32;3.10;;;10.90;99.90;;;;;;6275831;22;20019;-83
2023/03/31 00:19:03;;;;;;;18.98;3.55;;;12.00;99.90;;;;;;6273767;22;20022;-82
2023/03/31 00:21:32;;;;;;;20.77;5.40;;;10.70;99.90;;;;;;6277371;22;20337;-83
2023/03/31 00:24:09;;;;;;;17.77;4.38;;;10.70;99.90;;;;;;6275086;22;20016;-82
2023/03/31 00:26:35;;;;;;;14.70;3.47;;;10.60;99.90;;;;;;6274696;22;20440;-83
2023/03/31 00:29:02;;;;;;;20.17;3.72;;;11.00;99.90;;;;;;6275195;22;20031;-83
2023/03/31 00:31:28;;;;;;;19.83;4.22;;;10.70;99.90;;;;;;6275551;22;20474;-83
2023/03/31 00:33:55;;;;;;;15.60;3.70;;;10.50;99.90;;;;;;6274266;22;20039;-83
2023/03/31 00:36:26;;;;;;;15.43;2.97;;;10.50;99.90;;;;;;6275242;22;20016;-83
2023/03/31 00:39:12;;;;;;;18.15;3.95;;;11.50;99.90;;;;;;6274769;22;20134;-83
2023/03/31 00:41:38;;;;;;;18.75;3.38;;;11.80;99.90;;;;;;6274876;22;20019;-82
2023/03/31 00:44:26;;;;;;;15.32;3.42;;;10.20;99.90;;;;;;6275287;22;20022;-83
2023/03/31 00:47:02;;;;;;;15.77;3.40;;;10.10;99.90;;;;;;6274765;22;20016;-83
2023/03/31 00:49:39;;;;;;;17.85;3.63;;;10.00;99.90;;;;;;6276754;22;20498;-83
2023/03/31 00:52:21;;;;;;;14.90;3.03;;;9.80;99.90;;;;;;6301165;22;20008;-83
2023/03/31 00:54:51;;;;;;;17.83;4.18;;;10.50;99.90;;;;;;6276534;22;20016;-82
2023/03/31 00:57:17;;;;;;;16.65;3.38;;;9.70;99.90;;;;;;6276649;22;20019;-82
2023/03/31 00:59:47;;;;;;;18.05;3.78;;;9.60;99.90;;;;;;6301250;22;20016;-83
2023/03/31 01:02:16;;;;;;;14.68;4.10;;;9.50;99.90;;;;;;6276150;22;20011;-83
2023/03/31 01:05:00;;;;;;;18.70;3.88;;;9.40;99.90;;;;;;6301187;22;20047;-83
2023/03/31 01:07:36;;;;;;;16.85;4.03;;;9.40;99.90;;;;;;6274577;22;20065;-83
2023/03/31 01:10:03;;;;;;;16.40;4.07;;;9.40;99.90;;;;;;6300999;22;20340;-82
2023/03/31 01:12:32;;;;;;;16.20;4.22;;;9.40;99.90;;;;;;6277067;22;20026;-83
2023/03/31 01:15:00;;;;;;;14.23;4.93;;;9.70;99.90;;;;;;6275865;22;20012;-83
2023/03/31 01:17:28;;;;;;;17.38;4.40;;;10.20;99.90;;;;;;6301099;22;20050;-83
2023/03/31 01:20:11;;;;;;;16.60;4.82;;;9.40;99.90;;;;;;6275363;22;20011;-83
2023/03/31 01:23:24;;;;;;;16.85;4.55;;;9.30;99.90;;;;;;6281509;22;20077;-83
2023/03/31 01:26:13;;;;;;;16.08;4.43;;;9.30;99.90;;;;;;6301366;22;20019;-83
2023/03/31 01:28:58;;;;;;;18.77;4.80;;;10.10;99.90;;;;;;6280796;22;20020;-83
2023/03/31 01:31:59;;;;;;;20.63;4.53;;;9.40;99.90;;;;;;6280010;22;20015;-82
2023/03/31 01:35:00;;;;;;;13.73;4.38;;;9.40;99.90;;;;;;6275625;22;20093;-83
2023/03/31 01:37:38;;;;;;;18.83;4.57;;;9.40;99.90;;;;;;6300293;22;20520;-83
2023/03/31 01:40:09;;;;;;;17.13;4.68;;;9.40;99.90;;;;;;6300412;22;20036;-83
2023/03/31 01:42:41;;;;;;;15.27;4.38;;;9.40;99.90;;;;;;6300075;22;20022;-83
2023/03/31 01:45:17;;;;;;;16.17;4.82;;;9.40;99.90;;;;;;6276618;22;20019;-83
2023/03/31 01:47:56;;;;;;;15.55;4.03;;;9.30;99.90;;;;;;6276717;22;20050;-83
2023/03/31 01:50:32;;;;;;;15.90;4.55;;;9.30;99.90;;;;;;6299528;22;20379;-83
2023/03/31 01:53:05;;;;;;;15.45;4.43;;;9.30;99.90;;;;;;6276919;22;20012;-83
2023/03/31 01:55:37;;;;;;;;;;;9.30;99.90;;;;;;6275247;22;20600;-83
2023/03/31 01:58:14;;;;;;;14.02;4.07;;;9.30;99.90;;;;;;6275100;22;20343;-83
2023/03/31 02:00:50;;;;;;;17.50;4.53;;;9.30;99.90;;;;;;6274443;22;20087;-83
2023/03/31 02:03:25;;;;;;;16.10;4.13;;;9.20;99.90;;;;;;6275336;22;20019;-83
2023/03/31 02:05:56;;;;;;;18.58;4.95;;;9.30;99.90;;;;;;6275874;22;20008;-83
2023/03/31 02:08:28;;;;;;;14.30;4.47;;;9.20;99.90;;;;;;6300184;22;20519;-83
2023/03/31 02:10:54;;;;;;;18.13;5.07;;;9.20;99.90;;;;;;6275483;22;20455;-83
2023/03/31 02:13:23;;;;;;;18.33;4.82;;;9.80;99.90;;;;;;6299951;22;20015;-82
2023/03/31 02:15:53;;;;;;;14.70;4.72;;;10.10;99.90;;;;;;6276676;22;20019;-83
2023/03/31 02:18:25;;;;;;;14.60;4.30;;;9.20;99.90;;;;;;6273537;22;20488;-83
2023/03/31 02:20:52;;;;;;;12.05;3.55;;;9.20;99.90;;;;;;6276453;22;20332;-83
2023/03/31 02:23:21;;;;;;;15.68;4.07;;;9.40;99.90;;;;;;6276263;22;20043;-83
2023/03/31 02:25:52;;;;;;;13.43;3.97;;;9.20;99.90;;;;;;6273822;22;20398;-83
2023/03/31 02:28:24;;;;;;;17.38;4.20;;;9.20;99.90;;;;;;6274392;22;20026;-83
2023/03/31 02:31:28;;;;;;;15.38;4.25;;;9.20;99.90;;;;;;6300407;22;20401;-82
2023/03/31 02:33:55;;;;;;;16.63;4.10;;;9.70;99.90;;;;;;6273519;22;20117;-83
2023/03/31 02:36:21;;;;;;;14.77;3.70;;;9.20;99.90;;;;;;6275730;22;20091;-82
2023/03/31 02:38:54;;;;;;;13.23;3.92;;;9.20;99.90;;;;;;6273388;22;20047;-82
2023/03/31 02:41:20;;;;;;;;;;;9.20;99.90;;;;;;6274449;22;20460;-83
2023/03/31 02:43:46;;;;;;;14.52;3.78;;;9.30;99.90;;;;;;6274556;22;19962;-83
2023/03/31 02:46:11;;;;;;;13.38;3.80;;;9.90;99.90;;;;;;6274535;22;20070;-83
2023/03/31 02:48:42;;;;;;;13.73;3.60;;;9.30;99.90;;;;;;6274616;22;20389;-83
2023/03/31 02:51:07;;;;;;;13.70;3.75;;;9.30;99.90;;;;;;6275791;22;20018;-83
2023/03/31 02:53:47;;;;;;;15.38;3.60;;;10.20;99.90;;;;;;6279384;22;20332;-83
2023/03/31 02:56:48;;;;;;;17.05;3.95;;;9.40;99.90;;;;;;6300056;22;20015;-83
2023/03/31 02:59:40;;;;;;;12.52;3.00;;;9.40;99.90;;;;;;6239001;22;20038;-83
2023/03/31 03:02:20;;;;;;;16.52;3.85;;;9.50;99.90;;;;;;6275287;22;20091;-83
2023/03/31 03:04:52;;;;;;;11.75;3.47;;;9.50;99.90;;;;;;6300054;22;20026;-83
2023/03/31 03:07:33;;;;;;;12.82;3.90;;;10.30;99.90;;;;;;6298893;22;20043;-83
2023/03/31 03:10:16;;;;;;;13.82;3.72;;;9.50;99.90;;;;;;6299731;22;20011;-83
2023/03/31 03:12:57;;;;;;;16.10;4.30;;;9.50;99.90;;;;;;6274339;22;20059;-83
2023/03/31 03:15:26;;;;;;;14.63;4.10;;;9.50;99.90;;;;;;6273201;22;20436;-83
2023/03/31 03:17:54;;;;;;;11.93;3.53;;;9.60;99.90;;;;;;6279380;22;20015;-84
2023/03/31 03:20:22;;;;;;;11.68;3.67;;;9.60;99.90;;;;;;6278372;22;20030;-83
2023/03/31 03:22:47;;;;;;;13.80;3.67;;;10.60;99.90;;;;;;6275451;22;20034;-83
2023/03/31 03:25:16;;;;;;;14.55;3.67;;;10.20;99.90;;;;;;6299495;22;20431;-83
2023/03/31 03:27:41;;;;;;;11.00;3.65;;;9.90;99.90;;;;;;6275223;22;20012;-83
2023/03/31 03:30:09;;;;;;;13.30;4.13;;;10.20;99.90;;;;;;6275610;22;20095;-83
2023/03/31 03:32:35;;;;;;;13.32;4.10;;;9.80;99.90;;;;;;6300484;22;20069;-83
2023/03/31 03:35:02;;;;;;;14.30;4.00;;;10.30;99.90;;;;;;6298372;22;20393;-83
2023/03/31 03:37:28;;;;;;;13.98;3.75;;;9.80;99.90;;;;;;6274101;22;20016;-83
2023/03/31 03:39:53;;;;;;;13.55;3.88;;;9.80;99.90;;;;;;6275582;22;20035;-83
2023/03/31 03:42:19;;;;;;;11.77;3.80;;;9.80;99.90;;;;;;6298519;22;20444;-83
2023/03/31 03:44:45;;;;;;;14.13;3.85;;;10.70;99.90;;;;;;6299566;22;20058;-83
2023/03/31 03:47:10;;;;;;;16.38;3.80;;;9.70;99.90;;;;;;6276481;22;20051;-83
2023/03/31 03:49:36;;;;;;;11.68;4.13;;;9.70;99.90;;;;;;6300567;22;20042;-82
2023/03/31 03:52:02;;;;;;;12.68;4.10;;;9.70;99.90;;;;;;6275480;22;20015;-83
2023/03/31 03:54:27;;;;;;;10.85;3.58;;;10.40;99.90;;;;;;6277691;22;20039;-82
2023/03/31 03:56:53;;;;;;;13.40;3.85;;;10.70;99.90;;;;;;6274845;22;20375;-83
2023/03/31 03:59:19;;;;;;;13.98;4.25;;;10.40;99.90;;;;;;6277265;22;20133;-83
2023/03/31 04:01:44;;;;;;;14.60;4.20;;;10.50;99.90;;;;;;6301512;22;20448;-82
2023/03/31 04:04:10;;;;;;;14.55;3.92;;;9.60;99.90;;;;;;6299347;22;20444;-83
2023/03/31 04:06:35;;;;;;;13.10;3.92;;;9.60;99.90;;;;;;6274172;22;20102;-82
2023/03/31 04:09:02;;;;;;;11.57;4.10;;;9.60;99.90;;;;;;6277077;22;20049;-82
2023/03/31 04:11:27;;;;;;;15.45;4.20;;;9.50;99.90;;;;;;6274439;22;20015;-82
2023/03/31 04:13:53;;;;;;;15.15;4.30;;;9.50;99.90;;;;;;6275809;22;20348;-82
2023/03/31 04:16:19;;;;;;;11.10;3.90;;;9.60;99.90;;;;;;6274899;22;20023;-82
2023/03/31 04:18:44;;;;;;;13.85;4.85;;;9.50;99.90;;;;;;6276624;22;20126;-82
2023/03/31 04:21:21;;;;;;;14.68;4.28;;;9.40;99.90;;;;;;6276812;22;20016;-82
2023/03/31 04:23:48;;;;;;;13.85;4.55;;;9.40;99.90;;;;;;6280204;22;20015;-82
2023/03/31 04:26:15;;;;;;;13.60;4.50;;;9.40;99.90;;;;;;6278211;22;20031;-82
2023/03/31 04:28:45;;;;;;;12.95;3.80;;;9.40;99.90;;;;;;6277722;22;20008;-82
2023/03/31 04:31:23;;;;;;;14.20;4.63;;;9.70;99.90;;;;;;6280480;22;20015;-82
2023/03/31 04:33:50;;;;;;;12.68;4.22;;;9.30;99.90;;;;;;6277991;22;20016;-82
2023/03/31 04:36:19;;;;;;;14.32;4.47;;;9.30;99.90;;;;;;6277164;22;20023;-82
2023/03/31 04:38:46;;;;;;;11.63;4.18;;;9.30;99.90;;;;;;6300464;22;20105;-82
2023/03/31 04:41:13;;;;;;;14.20;4.68;;;9.30;99.90;;;;;;6301210;22;20020;-82
2023/03/31 04:43:39;;;;;;;15.15;4.95;;;9.30;99.90;;;;;;6301443;22;20305;-82
2023/03/31 04:46:07;;;;;;;15.50;4.60;;;9.30;99.90;;;;;;6274636;22;20041;-82
2023/03/31 04:48:43;;;;;;;15.85;4.88;;;9.30;99.90;;;;;;6280355;22;20102;-82
2023/03/31 04:51:14;;;;;;;15.53;5.03;;;9.10;99.90;;;;;;6274717;22;20439;-82
2023/03/31 04:53:55;;;;;;;15.93;4.63;;;9.40;99.90;;;;;;6276645;22;20047;-81
2023/03/31 04:56:21;;;;;;;16.05;4.47;;;9.40;99.90;;;;;;6275071;22;20019;-81
2023/03/31 04:58:47;;;;;;;15.15;4.55;;;10.70;99.90;;;;;;6274909;22;20026;-81
2023/03/31 05:01:16;;;;;;;16.63;4.95;;;9.30;99.90;;;;;;6274077;22;20008;-82
2023/03/31 05:03:43;;;;;;;14.45;4.82;;;9.40;99.90;;;;;;6277193;22;20012;-81
2023/03/31 05:06:09;;;;;;;18.25;5.28;;;9.30;99.90;;;;;;6275737;22;20023;-84
2023/03/31 05:08:36;;;;;;;19.05;4.97;;;9.40;99.90;;;;;;6275009;22;20011;-83
2023/03/31 05:11:03;;;;;;;18.13;4.90;;;9.80;99.90;;;;;;6276504;22;20023;-83
2023/03/31 05:13:29;;;;;;;16.02;4.90;;;9.40;99.90;;;;;;6276236;22;20301;-83
2023/03/31 05:15:54;;;;;;;14.95;4.88;;;9.40;99.90;;;;;;6274919;22;20023;-84
2023/03/31 05:18:22;;;;;;;16.98;4.88;;;9.80;99.90;;;;;;6276914;22;20448;-85
2023/03/31 05:20:54;;;;;;;16.70;4.50;;;10.30;99.90;;;;;;6276925;22;20016;-84
2023/03/31 05:23:20;;;;;;;14.55;5.15;;;9.40;99.90;;;;;;6276641;22;20015;-83
2023/03/31 05:25:55;;;;;;;17.75;5.03;;;10.30;99.90;;;;;;6277186;22;20008;-83
2023/03/31 05:28:55;;;;;;;16.23;4.95;;;9.40;99.90;;;;;;6274127;22;20408;-84
2023/03/31 05:31:21;;;;;;;17.17;5.25;;;9.40;99.90;;;;;;6300431;22;20031;-83
2023/03/31 05:34:02;;;;;;;16.73;5.28;;;10.40;99.90;;;;;;6276792;22;20058;-83
2023/03/31 05:36:37;;;;;;;16.58;5.20;;;10.40;99.90;;;;;;6275876;22;20066;-82
2023/03/31 05:39:04;;;;;;;16.63;5.25;;;10.70;99.90;;;;;;6274548;22;20502;-82
2023/03/31 05:41:33;;;;;;;20.35;5.85;;;9.80;99.90;;;;;;6275885;22;20019;-82
2023/03/31 05:43:58;;;;;;;14.68;5.70;;;9.40;99.90;;;;;;6275195;22;20022;-81
2023/03/31 05:46:25;;;;;;;18.02;6.20;;;9.30;99.90;;;;;;6274695;22;20016;-81
2023/03/31 05:48:51;;;;;;;17.83;5.70;;;9.40;99.90;;;;;;6274516;22;20015;-81
2023/03/31 05:51:17;;;;;;;14.85;6.20;;;9.30;99.90;;;;;;6276266;22;20020;-81
2023/03/31 05:54:14;;;;;;;17.48;5.88;;;9.40;99.90;;;;;;6277429;22;20088;-81
2023/03/31 05:56:40;;;;;;;14.65;5.53;;;8.90;99.90;;;;;;6287128;22;20003;-82
2023/03/31 05:59:15;;;;;;;16.73;5.97;;;9.40;99.90;;;;;;6307805;22;20023;-80
2023/03/31 06:01:43;;;;;;;15.52;5.63;;;10.60;99.90;;;;;;6301629;22;20077;-82
2023/03/31 06:04:08;;;;;;;15.45;5.53;;;9.30;99.90;;;;;;6296274;22;20019;-81
2023/03/31 06:15:53;;;;;;;13.77;5.18;;;9.30;99.90;;;;;;6283704;22;20348;-86
2023/03/31 06:22:20;;;;;;;16.10;5.47;;;9.00;99.90;;;;;;6346262;22;20499;-88
2023/03/31 06:24:45;;;;;;;15.13;5.43;;;10.80;99.90;;;;;;6306572;22;20026;-81
2023/03/31 06:27:11;;;;;;;15.00;5.25;;;10.50;99.90;;;;;;6280365;22;20041;-81
2023/03/31 06:35:15;;;;;;;14.93;5.40;;;9.30;99.90;;;;;;6269054;22;20100;-82
2023/03/31 09:13:51;;;;;;;11.90;3.80;;;10.30;99.90;;;;;;6293482;22;20030;-82
2023/03/31 09:16:58;;;;;;;15.10;5.53;;;10.30;99.90;;;;;;6306987;22;20023;-82
2023/03/31 09:19:29;;;;;;;11.68;3.88;;;10.30;99.90;;;;;;6276291;22;20098;-82
2023/03/31 09:21:57;;;;;;;11.88;3.70;;;10.60;99.90;;;;;;6307029;22;20019;-82
2023/03/31 09:25:12;;;;;;;12.85;3.53;;;10.40;99.90;;;;;;6304307;22;20308;-83
2023/03/31 09:28:29;;;;;;;13.45;4.72;;;10.40;99.90;;;;;;6274008;22;20086;-85
2023/03/31 09:34:35;;;;;;;15.18;4.32;;;10.50;99.90;;;;;;6226050;22;20362;-83
2023/03/31 09:37:37;;;;;;;13.15;4.47;;;10.50;99.90;;;;;;6274129;22;20065;-82
2023/03/31 09:40:25;;;;;;;13.80;4.95;;;10.10;99.90;;;;;;6275978;22;20015;-82
2023/03/31 09:43:44;;;;;;;13.98;5.07;;;11.80;99.90;;;;;;6275310;22;20022;-83
2023/03/31 09:46:30;;;;;;;15.18;5.18;;;10.40;99.90;;;;;;6156909;23;20075;-84
2023/03/31 09:53:11;;;;;;;10.68;3.30;;;11.80;99.90;;;;;;6251040;22;20512;-84
2023/03/31 09:56:07;;;;;;;11.98;4.70;;;10.50;99.90;;;;;;6157437;23;20057;-85
2023/03/31 09:58:54;;;;;;;12.05;5.35;;;10.20;99.90;;;;;;6182785;23;20035;-84
2023/03/31 10:01:57;;;;;;;13.60;5.07;;;10.50;99.90;;;;;;6180698;23;20337;-84
2023/03/31 10:08:16;;;;;;;16.00;6.22;;;10.70;99.90;;;;;;6182250;23;20039;-86
2023/03/31 10:11:08;;;;;;;13.35;4.53;;;10.70;99.90;;;;;;6246445;22;20016;-86
2023/03/31 10:13:51;;;;;;;12.70;4.72;;;10.30;99.90;;;;;;6278158;22;20019;-85
2023/03/31 10:16:22;;;;;;;11.20;4.00;;;10.60;99.90;;;;;;6273979;22;20930;-84
2023/03/31 10:18:48;;;;;;;12.02;3.33;;;11.00;99.90;;;;;;6274607;22;20246;-84
2023/03/31 10:21:35;;;;;;;11.88;3.72;;;11.60;99.90;;;;;;6275680;22;20034;-86
2023/03/31 10:24:06;;;;;;;9.77;3.47;;;10.60;99.90;;;;;;6276419;22;20496;-85
2023/03/31 10:26:32;;;;;;;12.68;3.50;;;11.10;99.90;;;;;;6276676;22;20019;-85
2023/03/31 10:29:00;;;;;;;10.07;2.70;;;11.40;99.90;;;;;;6273422;22;20042;-85
2023/03/31 10:32:04;;;;;;;9.70;3.05;;;10.70;99.90;;;;;;6270558;22;20027;-85
2023/03/31 10:35:32;;;;;;;10.35;2.70;;;10.80;99.90;;;;;;6278459;22;20023;-85
2023/03/31 10:38:12;;;;;;;9.18;2.30;;;12.10;99.90;;;;;;6271055;22;20015;-87
2023/03/31 10:40:51;;;;;;;9.00;2.20;;;11.20;99.90;;;;;;6276209;22;20007;-86
2023/03/31 10:43:20;;;;;;;9.45;2.33;;;11.30;99.90;;;;;;6272369;22;20023;-84
2023/03/31 10:45:47;;;;;;;7.35;2.15;;;12.00;99.90;;;;;;6274491;22;20384;-85
2023/03/31 10:48:17;;;;;;;12.10;2.60;;;12.00;99.90;;;;;;6274252;22;20076;-84
2023/03/31 10:50:43;;;;;;;6.93;2.05;;;11.40;99.90;;;;;;6275100;22;20013;-85
2023/03/31 10:53:19;;;;;;;10.57;2.58;;;11.20;99.90;;;;;;6275930;22;20026;-84
2023/03/31 10:56:14;;;;;;;10.60;3.40;;;11.20;99.90;;;;;;6274492;22;20011;-83
2023/03/31 10:58:51;;;;;;;11.05;3.55;;;11.10;99.90;;;;;;6275068;22;20012;-82
2023/03/31 11:01:31;;;;;;;10.75;2.63;;;11.10;99.90;;;;;;6273763;22;20047;-83
2023/03/31 11:04:27;;;;;;;8.30;3.22;;;10.50;99.90;;;;;;6272930;22;20031;-83
2023/03/31 11:07:01;;;;;;;9.13;2.30;;;11.20;99.90;;;;;;6277388;22;20016;-82
2023/03/31 11:09:39;;;;;;;9.73;2.35;;;11.40;99.90;;;;;;6274372;22;20415;-83
2023/03/31 11:12:07;;;;;;;9.85;2.47;;;11.50;99.90;;;;;;6274708;22;20015;-83
2023/03/31 11:14:48;;;;;;;8.10;2.50;;;11.70;99.90;;;;;;6274329;22;20027;-82
2023/03/31 11:17:32;;;;;;;8.75;2.50;;;11.80;99.90;;;;;;6274834;22;20019;-83
2023/03/31 11:20:08;;;;;;;9.60;3.03;;;12.20;99.90;;;;;;6273374;22;20016;-83
2023/03/31 11:22:51;;;;;;;9.55;2.65;;;11.90;99.90;;;;;;6280240;22;20015;-83
2023/03/31 11:25:46;;;;;;;10.02;2.63;;;11.90;99.90;;;;;;6272774;22;20086;-83
2023/03/31 11:28:15;;;;;;;9.82;2.70;;;11.90;99.90;;;;;;6275461;22;20073;-83
2023/03/31 11:31:19;;;;;;;8.75;2.67;;;11.90;99.90;;;;;;6274149;22;20439;-83
2023/03/31 11:34:09;;;;;;;12.48;2.70;;;11.90;99.90;;;;;;6275209;22;20019;-83
2023/03/31 11:36:57;;;;;;;9.00;2.95;;;12.00;99.90;;;;;;6280644;22;20051;-83
2023/03/31 11:39:55;;;;;;;10.07;2.85;;;11.90;99.90;;;;;;6276784;22;20016;-83
2023/03/31 11:42:32;;;;;;;9.80;2.85;;;12.00;99.90;;;;;;6274231;22;20016;-83
2023/03/31 11:48:58;;;;;;;9.10;2.97;;;11.90;99.90;;;;;;6276399;22;20046;-85
2023/03/31 11:51:30;;;;;;;12.90;4.05;;;13.00;99.90;;;;;;6275153;22;20091;-84
2023/03/31 11:54:00;;;;;;;11.38;3.03;;;12.90;99.90;;;;;;6273407;22;20023;-84
2023/03/31 11:56:35;;;;;;;11.48;3.85;;;12.80;99.90;;;;;;6273991;22;20022;-83
2023/03/31 11:59:03;;;;;;;12.18;2.97;;;11.70;99.90;;;;;;6275751;22;20026;-84
2023/03/31 12:01:35;;;;;;;12.02;3.72;;;11.70;99.90;;;;;;6273363;22;20336;-83
2023/03/31 12:04:08;;;;;;;10.43;2.88;;;12.10;99.90;;;;;;6274261;22;20034;-83
2023/03/31 12:06:40;;;;;;;13.45;3.03;;;12.20;99.90;;;;;;6276093;22;20046;-83
2023/03/31 12:09:08;;;;;;;9.93;3.00;;;11.70;99.90;;;;;;6277456;22;20023;-80
2023/03/31 12:12:13;;;;;;;9.60;3.00;;;11.70;99.90;;;;;;6277965;22;20031;-82
2023/03/31 12:14:47;;;;;;;13.27;3.53;;;11.70;99.90;;;;;;6208343;22;20351;-81
2023/03/31 12:17:17;;;;;;;10.02;3.17;;;11.60;99.90;;;;;;6275760;22;20449;-80
2023/03/31 12:19:50;;;;;;;11.20;3.33;;;12.60;99.90;;;;;;6276891;22;20366;-80
2023/03/31 12:22:27;;;;;;;13.80;3.80;;;11.60;99.90;;;;;;6275743;22;20447;-80
2023/03/31 12:24:54;;;;;;;12.85;3.67;;;11.70;99.90;;;;;;6275920;22;20473;-81
2023/03/31 12:27:26;;;;;;;10.35;3.70;;;12.20;99.90;;;;;;6275475;22;20015;-80
2023/03/31 12:30:12;;;;;;;10.77;3.60;;;12.00;99.90;;;;;;6274718;22;20026;-81
2023/03/31 12:32:42;;;;;;;14.07;3.78;;;12.10;99.90;;;;;;6276167;22;20020;-82
2023/03/31 12:35:22;;;;;;;11.57;4.28;;;12.40;99.90;;;;;;6274554;22;20047;-81
2023/03/31 12:37:57;;;;;;;12.23;4.10;;;12.70;99.90;;;;;;6275916;22;20016;-81
2023/03/31 12:40:30;;;;;;;12.88;4.93;;;12.90;99.90;;;;;;6277451;22;20351;-80
2023/03/31 12:43:23;;;;;;;12.15;4.53;;;13.80;99.90;;;;;;6275118;22;20023;-80
2023/03/31 12:46:07;;;;;;;11.45;4.30;;;13.00;99.90;;;;;;6277498;22;20670;-80
2023/03/31 12:48:43;;;;;;;13.75;4.38;;;13.10;99.90;;;;;;6276888;22;20498;-80
2023/03/31 12:51:22;;;;;;;13.30;4.40;;;13.30;99.90;;;;;;6274008;22;20012;-80
2023/03/31 12:54:08;;;;;;;15.48;4.15;;;13.40;99.90;;;;;;6277539;22;20016;-80
2023/03/31 12:56:58;;;;;;;13.90;4.40;;;13.40;99.90;;;;;;6274037;22;20020;-80
2023/03/31 12:59:32;;;;;;;15.57;4.50;;;13.30;99.90;;;;;;6276815;22;20023;-80
2023/03/31 13:02:15;;;;;;;16.02;4.88;;;13.60;99.90;;;;;;6275392;22;20031;-80
2023/03/31 13:04:42;;;;;;;11.60;4.55;;;12.90;99.90;;;;;;6274409;22;20016;-81
2023/03/31 13:07:27;;;;;;;14.10;4.30;;;12.90;99.90;;;;;;6275317;22;20022;-80
2023/03/31 13:09:57;;;;;;;13.88;4.50;;;12.80;99.90;;;;;;6279181;22;20016;-80
2023/03/31 13:12:26;;;;;;;17.17;4.35;;;13.20;99.90;;;;;;6275326;22;20034;-82
2023/03/31 13:14:58;;;;;;;15.90;4.10;;;13.80;99.90;;;;;;6275728;22;20020;-82
2023/03/31 13:17:36;;;;;;;15.38;4.53;;;13.60;99.90;;;;;;6276039;22;20054;-82
2023/03/31 13:20:30;;;;;;;12.60;3.50;;;13.60;99.90;;;;;;6274898;22;20038;-81
2023/03/31 13:23:05;;;;;;;11.35;3.25;;;12.80;99.90;;;;;;6276802;22;20020;-81
2023/03/31 13:25:53;;;;;;;13.88;3.33;;;12.70;99.90;;;;;;6276026;22;20054;-81
2023/03/31 13:28:21;;;;;;;14.88;3.13;;;12.60;99.90;;;;;;6276838;22;20020;-81
2023/03/31 13:30:51;;;;;;;15.25;3.20;;;12.50;99.90;;;;;;6276773;22;20016;-81
2023/03/31 13:33:27;;;;;;;16.27;3.75;;;12.50;99.90;;;;;;6275763;22;20024;-81
2023/03/31 13:36:01;;;;;;;14.65;3.33;;;12.40;99.90;;;;;;6275141;22;20019;-81
2023/03/31 13:39:01;;;;;;;15.45;3.53;;;12.50;99.90;;;;;;6275067;22;20020;-80
2023/03/31 13:41:42;;;;;;;16.35;3.95;;;12.40;99.90;;;;;;6227050;22;20019;-80
2023/03/31 13:44:28;;;;;;;11.48;3.78;;;12.50;99.90;;;;;;6276718;22;20027;-81
2023/03/31 13:47:18;;;;;;;13.10;3.33;;;12.40;99.90;;;;;;6274325;22;20339;-81
2023/03/31 13:50:18;;;;;;;15.18;4.70;;;12.50;99.90;;;;;;6275105;22;20087;-81
2023/03/31 13:53:05;;;;;;;16.58;4.00;;;12.50;99.90;;;;;;6274731;22;20328;-81
2023/03/31 13:55:56;;;;;;;12.55;3.60;;;12.50;99.90;;;;;;6276803;22;20019;-81
2023/03/31 13:58:26;;;;;;;15.43;3.60;;;12.50;99.90;;;;;;6274885;22;20055;-80
2023/03/31 14:01:25;;;;;;;16.52;3.20;;;12.50;99.90;;;;;;6275646;22;20008;-80
2023/03/31 14:04:06;;;;;;;12.50;3.25;;;12.90;99.90;;;;;;6208651;22;20363;-81
2023/03/31 14:06:48;;;;;;;9.98;2.65;;;12.20;99.90;;;;;;6274265;22;20016;-80
2023/03/31 14:09:29;;;;;;;24.85;11.88;;;12.50;99.90;;;;;;6274518;22;20081;-80
2023/03/31 14:11:58;;;;;;;24.00;13.32;;;12.20;99.90;;;;;;6274901;22;20051;-80
2023/03/31 14:14:23;;;;;;;22.60;10.27;;;12.00;99.90;;;;;;6275930;22;20012;-80
2023/03/31 14:16:59;;;;;;;22.48;15.10;;;12.60;99.90;;;;;;6276766;22;20094;-79
2023/03/31 14:19:56;;;;;;;20.58;9.25;;;12.20;99.90;;;;;;6276523;22;20094;-80
2023/03/31 14:22:31;;;;;;;14.55;7.20;;;11.80;99.90;;;;;;6276379;22;20054;-81
2023/03/31 14:25:17;;;;;;;14.93;7.90;;;11.70;99.90;;;;;;6275871;22;20466;-81
2023/03/31 14:28:07;;;;;;;20.83;7.85;;;12.30;99.90;;;;;;6275582;22;20012;-80
2023/03/31 14:31:20;;;;;;;29.75;22.83;;;11.50;99.90;;;;;;6276072;22;20408;-80
2023/03/31 14:34:11;;;;;;;17.40;5.10;;;11.40;99.90;;;;;;6269924;22;20391;-80
2023/03/31 14:37:00;;;;;;;14.85;4.18;;;11.40;99.90;;;;;;6273704;22;20100;-80
2023/03/31 14:39:33;;;;;;;14.65;6.13;;;11.20;99.90;;;;;;6285350;22;20022;-82
2023/03/31 14:42:04;;;;;;;18.27;9.45;;;11.20;99.90;;;;;;6287406;22;20049;-82
2023/03/31 14:44:32;;;;;;;13.48;3.25;;;12.00;99.90;;;;;;6275882;22;20539;-83
2023/03/31 14:46:57;;;;;;;15.90;3.60;;;11.10;99.90;;;;;;6279911;22;20042;-82
2023/03/31 14:49:28;;;;;;;12.73;3.78;;;12.10;99.90;;;;;;6279585;22;20016;-82
2023/03/31 14:51:59;;;;;;;16.30;4.75;;;11.10;99.90;;;;;;6276227;22;20015;-82
2023/03/31 14:54:25;;;;;;;16.02;4.28;;;11.60;99.90;;;;;;6276275;22;20379;-83
2023/03/31 14:56:57;;;;;;;16.42;4.13;;;11.30;99.90;;;;;;6275663;22;20019;-83
2023/03/31 14:59:27;;;;;;;14.52;4.07;;;11.40;99.90;;;;;;6274704;22;20012;-84
2023/03/31 15:01:56;;;;;;;14.15;3.40;;;11.40;99.90;;;;;;6274505;22;20592;-83
2023/03/31 15:04:25;;;;;;;16.02;5.15;;;12.10;99.90;;;;;;6275627;22;20334;-83
2023/03/31 15:06:52;;;;;;;15.77;4.00;;;12.60;99.90;;;;;;6276087;22;20008;-83
2023/03/31 15:09:28;;;;;;;13.32;3.28;;;11.70;99.90;;;;;;6274517;22;20143;-83
2023/03/31 15:12:14;;;;;;;13.65;3.58;;;11.50;99.90;;;;;;6273232;22;20462;-82
2023/03/31 15:14:45;;;;;;;13.52;3.13;;;11.50;99.90;;;;;;6275672;22;20016;-83
2023/03/31 15:17:20;;;;;;;13.27;3.53;;;12.10;99.90;;;;;;6272721;22;20793;-82
2023/03/31 15:19:45;;;;;;;15.73;3.35;;;12.50;99.90;;;;;;6273176;22;20335;-82
2023/03/31 15:22:15;;;;;;;14.98;3.75;;;11.70;99.90;;;;;;6273180;22;20015;-82
2023/03/31 15:24:41;;;;;;;14.85;4.05;;;11.70;99.90;;;;;;6272392;22;20511;-82
2023/03/31 15:27:12;;;;;;;14.30;4.07;;;12.50;99.90;;;;;;6275084;22;20046;-80
2023/03/31 15:29:44;;;;;;;15.73;3.58;;;11.80;99.90;;;;;;6273394;22;20022;-81
2023/03/31 15:32:26;;;;;;;13.25;3.75;;;11.90;99.90;;;;;;6274597;22;20016;-81
2023/03/31 15:34:52;;;;;;;12.35;3.88;;;11.90;99.90;;;;;;6275837;22;20015;-81
2023/03/31 15:37:39;;;;;;;14.05;4.05;;;12.50;99.90;;;;;;6273056;22;20422;-81
2023/03/31 15:40:18;;;;;;;16.98;3.47;;;12.00;99.90;;;;;;6274819;22;20078;-81
2023/03/31 15:42:45;;;;;;;13.73;3.47;;;12.00;99.90;;;;;;6274614;22;20024;-81
2023/03/31 15:45:35;;;;;;;13.32;4.28;;;12.70;99.90;;;;;;6274845;22;20011;-81
2023/03/31 15:48:02;;;;;;;17.90;4.82;;;12.00;99.90;;;;;;6275940;22;20016;-80
2023/03/31 15:50:28;;;;;;;18.17;6.25;;;12.00;99.90;;;;;;6276047;22;20015;-81
2023/03/31 15:52:57;;;;;;;18.58;6.40;;;12.50;99.90;;;;;;6277039;22;20069;-81
2023/03/31 15:55:27;;;;;;;18.52;5.30;;;12.60;99.90;;;;;;6273383;22;20019;-81
2023/03/31 15:57:55;;;;;;;21.23;5.78;;;11.80;99.90;;;;;;6276028;22;20022;-81
2023/03/31 16:00:37;;;;;;;15.23;3.55;;;12.70;99.90;;;;;;6276440;22;20012;-81
2023/03/31 16:03:11;;;;;;;14.68;3.92;;;12.30;99.90;;;;;;6274410;22;20023;-81
2023/03/31 16:05:41;;;;;;;16.23;4.13;;;11.80;99.90;;;;;;6277397;22;20008;-81
2023/03/31 16:08:13;;;;;;;14.20;3.60;;;12.60;99.90;;;;;;6273945;22;20011;-85
2023/03/31 16:10:39;;;;;;;13.07;2.92;;;11.80;99.90;;;;;;6279056;22;20026;-79
2023/03/31 16:13:15;;;;;;;10.40;2.45;;;11.50;99.90;;;;;;6275611;22;20022;-80
2023/03/31 16:15:45;;;;;;;8.38;1.98;;;11.60;99.90;;;;;;6275367;22;20020;-80
2023/03/31 16:18:16;;;;;;;9.70;2.00;;;12.10;99.90;;;;;;6279224;22;20041;-80
2023/03/31 16:20:53;;;;;;;10.25;2.45;;;12.10;99.90;;;;;;6277788;22;20019;-80
2023/03/31 16:23:22;;;;;;;9.07;1.98;;;11.40;99.90;;;;;;6274826;22;20020;-80
2023/03/31 16:25:48;;;;;;;8.63;1.95;;;11.30;99.90;;;;;;6275835;22;20015;-81
2023/03/31 16:28:19;;;;;;;8.40;2.00;;;11.20;99.90;;;;;;6276391;22;20383;-80
2023/03/31 16:30:45;;;;;;;8.25;2.00;;;11.60;99.90;;;;;;6277152;22;20012;-80
2023/03/31 16:33:18;;;;;;;9.18;2.30;;;11.70;99.90;;;;;;6276344;22;20042;-80